Time;durP1;ratioP1;P1;durP2;ratioP2;P2;SDS_P1;SDS_P2;PMS_P1;PMS_P2;Temp;Humidity;BMP_temperature;BMP_pressure;BME280_temperature;BME280_humidity;BME280_pressure;Samples;Min_cycle;Max_cycle;Signal;HPM_P1;HPM_P2
2023/05/03 00:00:53;;;;;;;11.40;6.00;;;;;;;12.49;53.66;101221.23;111361;1257;21973;-79
2023/05/03 00:03:28;;;;;;;8.40;6.30;;;;;;;12.46;53.58;101226.72;110705;1263;23708;-79
2023/05/03 00:06:13;;;;;;;10.90;6.00;;;;;;;12.43;53.46;101224.57;110505;1263;22278;-78
2023/05/03 00:08:53;;;;;;;11.90;6.40;;;;;;;12.40;53.61;101224.68;110694;1263;22440;-78
2023/05/03 00:11:31;;;;;;;10.40;5.10;;;;;;;12.40;53.58;101224.13;110236;1268;22016;-76
2023/05/03 00:14:15;;;;;;;9.80;5.70;;;;;;;12.42;53.63;101220.59;110157;1268;22042;-79
2023/05/03 00:16:51;;;;;;;11.50;5.20;;;;;;;12.41;53.41;101220.27;110301;1268;21928;-78
2023/05/03 00:19:34;;;;;;;12.30;6.30;;;;;;;12.41;53.30;101220.80;109584;1272;23090;-79
2023/05/03 00:22:06;;;;;;;12.40;5.50;;;;;;;12.40;53.17;101218.71;109832;1268;22017;-77
2023/05/03 00:24:42;;;;;;;10.80;6.00;;;;;;;12.39;53.05;101214.20;110132;1268;22066;-79
2023/05/03 00:27:13;;;;;;;13.10;6.70;;;;;;;12.40;52.92;101214.73;110110;1268;21928;-80
2023/05/03 00:29:43;;;;;;;14.30;6.80;;;;;;;12.36;52.70;101211.19;110271;1265;21973;-78
2023/05/03 00:32:24;;;;;;;11.40;6.60;;;;;;;12.32;52.59;101209.55;110348;1265;21958;-79
2023/05/03 00:34:57;;;;;;;13.40;6.60;;;;;;;12.26;52.31;101210.45;110331;1265;23794;-77
2023/05/03 00:37:30;;;;;;;11.80;6.30;;;;;;;12.20;52.31;101210.27;110682;1257;24388;-78
2023/05/03 00:40:06;;;;;;;12.90;7.10;;;;;;;12.16;52.36;101212.15;111169;1257;22547;-78
2023/05/03 00:42:55;;;;;;;13.00;6.90;;;;;;;12.14;52.36;101215.38;111317;1257;23700;-79
2023/05/03 00:45:41;;;;;;;10.10;5.90;;;;;;;12.09;52.25;101216.02;111157;1257;22068;-78
2023/05/03 00:48:18;;;;;;;13.10;6.50;;;;;;;12.01;52.28;101215.91;110948;1257;22019;-78
2023/05/03 00:50:53;;;;;;;15.10;6.50;;;;;;;12.01;52.35;101220.27;111113;1257;22120;-79
2023/05/03 00:53:35;;;;;;;10.40;5.60;;;;;;;12.02;52.26;101222.89;111087;1257;21954;-77
2023/05/03 00:56:25;;;;;;;16.00;5.50;;;;;;;11.99;52.39;101223.63;111205;1257;22714;-78
2023/05/03 00:59:15;;;;;;;10.20;5.60;;;;;;;11.97;52.50;101225.64;111296;1257;23021;-78
2023/05/03 01:01:52;;;;;;;10.30;5.30;;;;;;;11.96;52.26;101220.61;111286;1257;23106;-78
2023/05/03 01:04:22;;;;;;;11.80;5.90;;;;;;;11.91;52.03;101214.62;111089;1257;23042;-79
2023/05/03 01:07:02;;;;;;;;;;;;;;;11.83;51.76;101208.55;111283;1257;23736;-79
2023/05/03 01:09:41;;;;;;;11.10;5.90;;;;;;;11.67;51.99;101215.46;110956;1257;22056;-81
2023/05/03 01:12:43;;;;;;;11.90;5.80;;;;;;;11.62;52.07;101219.44;111244;1257;21950;-79
2023/05/03 01:15:38;;;;;;;12.90;6.10;;;;;;;11.58;51.85;101216.80;111232;1257;21966;-78
2023/05/03 01:18:23;;;;;;;10.70;5.80;;;;;;;11.53;51.88;101219.88;111032;1257;21956;-79
2023/05/03 01:21:01;;;;;;;10.40;4.90;;;;;;;11.52;51.83;101226.88;111087;1257;22031;-78
2023/05/03 01:24:03;;;;;;;10.90;4.90;;;;;;;11.51;51.79;101229.67;111036;1257;21970;-78
2023/05/03 01:26:40;;;;;;;13.00;5.30;;;;;;;11.52;51.68;101232.45;111361;1257;22013;-79
2023/05/03 01:29:16;;;;;;;10.40;5.00;;;;;;;11.52;51.62;101238.73;111110;1257;23599;-78
2023/05/03 01:32:03;;;;;;;10.00;5.40;;;;;;;11.53;51.54;101244.28;111115;1257;21957;-78
2023/05/03 01:34:54;;;;;;;11.10;4.70;;;;;;;11.52;51.51;101246.56;110904;1257;21956;-79
2023/05/03 01:37:41;;;;;;;12.20;5.40;;;;;;;11.49;51.52;101250.83;111234;1244;21919;-80
2023/05/03 01:40:20;;;;;;;10.50;5.80;;;;;;;11.52;51.53;101250.92;111180;1257;22071;-77
2023/05/03 01:43:17;;;;;;;12.10;5.30;;;;;;;11.51;51.40;101253.58;111087;1257;22053;-77
2023/05/03 01:45:51;;;;;;;11.80;5.80;;;;;;;11.51;51.50;101258.46;111046;1257;21972;-78
2023/05/03 01:48:35;;;;;;;11.60;6.40;;;;;;;11.49;51.41;101260.42;111256;1257;23036;-77
2023/05/03 01:51:13;;;;;;;7.50;5.20;;;;;;;11.43;51.44;101258.33;111152;1257;22135;-78
2023/05/03 01:53:47;;;;;;;9.00;5.70;;;;;;;11.42;51.68;101259.92;110948;1257;21997;-80
2023/05/03 01:56:25;;;;;;;11.70;5.80;;;;;;;11.41;51.67;101262.56;111270;1250;21979;-79
2023/05/03 01:58:58;;;;;;;9.10;5.40;;;;;;;11.39;51.88;101266.80;111086;1257;22035;-78
2023/05/03 02:01:37;;;;;;;10.10;6.70;;;;;;;11.37;51.74;101265.27;111249;1257;21945;-78
2023/05/03 02:04:10;;;;;;;12.90;6.20;;;;;;;11.31;51.83;101265.78;111300;1257;23109;-78
2023/05/03 02:06:43;;;;;;;13.40;6.40;;;;;;;11.26;51.91;101263.27;111046;1252;23024;-79
2023/05/03 02:09:15;;;;;;;11.90;6.90;;;;;;;11.25;51.82;101262.96;111096;1257;21944;-78
2023/05/03 02:11:48;;;;;;;10.00;5.70;;;;;;;11.25;51.90;101260.35;111094;1257;22420;-78
2023/05/03 02:14:24;;;;;;;10.70;6.10;;;;;;;11.24;52.03;101261.42;111180;1256;23398;-78
2023/05/03 02:17:03;;;;;;;13.20;6.10;;;;;;;11.21;51.86;101262.54;110889;1256;21953;-78
2023/05/03 02:19:39;;;;;;;11.20;6.50;;;;;;;11.17;52.04;101258.48;111299;1244;23023;-78
2023/05/03 02:22:10;;;;;;;11.60;5.90;;;;;;;11.16;52.18;101256.27;111125;1256;23039;-79
2023/05/03 02:24:46;;;;;;;13.50;6.80;;;;;;;11.15;52.22;101262.02;111370;1255;21956;-80
2023/05/03 02:27:20;;;;;;;14.40;6.70;;;;;;;11.14;52.24;101262.56;111305;1256;21959;-78
2023/05/03 02:29:52;;;;;;;11.00;6.20;;;;;;;11.12;52.02;101261.21;111227;1256;23122;-79
2023/05/03 02:32:24;;;;;;;14.90;7.20;;;;;;;11.08;52.00;101264.12;111337;1257;21982;-78
2023/05/03 02:34:55;;;;;;;;;;;;;;;11.04;52.14;101264.40;110671;1263;21964;-80
2023/05/03 02:37:29;;;;;;;8.10;5.80;;;;;;;10.95;52.48;101265.48;110585;1253;21967;-80
2023/05/03 02:40:08;;;;;;;10.80;7.20;;;;;;;10.97;52.67;101266.65;110739;1263;21987;-81
2023/05/03 02:42:45;;;;;;;11.80;7.10;;;;;;;10.95;52.65;101265.66;110650;1263;21963;-78
2023/05/03 02:45:18;;;;;;;14.00;7.40;;;;;;;10.95;52.58;101268.98;110562;1263;21953;-78
2023/05/03 02:47:50;;;;;;;17.10;7.70;;;;;;;10.92;52.44;101273.91;110724;1252;22067;-78
2023/05/03 02:50:28;;;;;;;11.80;6.50;;;;;;;10.89;52.47;101273.29;110690;1258;23026;-77
2023/05/03 02:53:03;;;;;;;13.50;6.50;;;;;;;10.88;52.49;101275.56;110738;1256;22833;-77
2023/05/03 02:55:43;;;;;;;11.10;6.70;;;;;;;10.86;52.42;101277.72;111418;1256;21978;-77
2023/05/03 02:58:14;;;;;;;14.90;6.60;;;;;;;10.84;52.42;101279.85;111079;1256;21989;-78
2023/05/03 03:00:48;;;;;;;12.70;6.80;;;;;;;10.79;52.41;101281.02;111287;1256;21995;-79
2023/05/03 03:03:22;;;;;;;12.70;6.60;;;;;;;10.75;52.51;101284.09;111242;1256;21953;-77
2023/05/03 03:06:03;;;;;;;10.10;6.80;;;;;;;10.72;52.63;101286.75;111429;1255;21938;-77
2023/05/03 03:08:55;;;;;;;14.20;6.90;;;;;;;10.66;52.70;101290.55;110870;1261;23020;-78
2023/05/03 03:11:32;;;;;;;14.20;6.90;;;;;;;10.65;52.74;101294.77;110690;1261;21963;-76
2023/05/03 03:14:10;;;;;;;16.00;7.50;;;;;;;10.64;52.83;101296.01;110694;1262;21981;-76
2023/05/03 03:16:46;;;;;;;12.50;6.60;;;;;;;10.61;53.01;101296.92;110707;1262;23106;-77
2023/05/03 03:19:21;;;;;;;13.10;7.50;;;;;;;10.63;53.09;101300.36;110580;1262;21970;-77
2023/05/03 03:21:55;;;;;;;12.80;6.50;;;;;;;10.67;53.03;101305.51;110653;1254;24290;-77
2023/05/03 03:24:28;;;;;;;9.50;6.40;;;;;;;10.64;52.89;101306.95;110406;1262;22747;-77
2023/05/03 03:27:16;;;;;;;15.40;7.20;;;;;;;10.61;52.84;101308.06;110805;1262;21979;-78
2023/05/03 03:29:52;;;;;;;12.40;6.30;;;;;;;10.59;53.04;101315.61;110754;1255;21975;-77
2023/05/03 03:32:28;;;;;;;10.90;7.00;;;;;;;10.58;53.07;101317.52;110601;1262;22312;-77
2023/05/03 03:35:09;;;;;;;12.50;6.10;;;;;;;10.57;52.98;101317.56;110669;1262;22435;-79
2023/05/03 03:37:47;;;;;;;12.30;7.00;;;;;;;10.58;53.03;101320.33;110696;1262;21981;-79
2023/05/03 03:40:19;;;;;;;10.80;6.50;;;;;;;10.55;52.99;101320.37;110929;1256;21914;-77
2023/05/03 03:42:54;;;;;;;14.90;7.00;;;;;;;10.50;52.88;101320.32;110911;1256;23020;-79
2023/05/03 03:45:28;;;;;;;15.50;7.20;;;;;;;10.46;52.77;101321.11;111184;1256;21954;-78
2023/05/03 03:48:04;;;;;;;15.10;7.70;;;;;;;10.38;52.79;101320.58;111153;1256;21968;-77
2023/05/03 03:50:46;;;;;;;12.30;6.90;;;;;;;10.31;52.79;101315.15;111252;1256;23812;-78
2023/05/03 03:53:17;;;;;;;11.20;6.50;;;;;;;10.27;52.95;101316.62;110860;1256;21952;-78
2023/05/03 03:55:50;;;;;;;13.60;6.40;;;;;;;10.27;52.90;101326.00;111087;1256;22237;-79
2023/05/03 03:58:28;;;;;;;9.70;6.80;;;;;;;10.27;52.82;101326.70;111142;1256;21999;-78
2023/05/03 04:01:01;;;;;;;17.10;7.80;;;;;;;10.26;52.86;101327.23;111091;1256;21926;-80
2023/05/03 04:03:32;;;;;;;10.40;6.50;;;;;;;10.23;52.75;101331.48;111299;1254;21963;-78
2023/05/03 04:06:06;;;;;;;10.60;6.20;;;;;;;10.21;52.83;101340.91;111178;1256;21985;-80
2023/05/03 04:08:48;;;;;;;12.20;6.10;;;;;;;10.21;52.86;101340.20;111350;1256;21982;-79
2023/05/03 04:11:22;;;;;;;;;;;;;;;10.22;52.73;101344.90;111231;1256;21935;-79
2023/05/03 04:14:00;;;;;;;13.30;5.80;;;;;;;10.12;52.91;101347.17;111115;1256;22044;-78
2023/05/03 04:16:33;;;;;;;15.30;5.70;;;;;;;10.13;52.95;101353.59;111309;1256;21955;-78
2023/05/03 04:19:05;;;;;;;9.50;5.50;;;;;;;10.19;53.05;101357.31;110986;1256;21962;-77
2023/05/03 04:21:43;;;;;;;11.20;5.90;;;;;;;10.34;53.21;101362.25;111056;1256;23027;-78
2023/05/03 04:24:19;;;;;;;13.70;5.30;;;;;;;10.44;52.85;101363.08;111011;1256;21980;-78
2023/05/03 04:26:54;;;;;;;11.90;5.60;;;;;;;10.51;52.49;101361.37;111099;1256;21954;-77
2023/05/03 04:29:37;;;;;;;10.80;5.70;;;;;;;10.55;52.03;101365.98;110902;1260;23580;-78
2023/05/03 04:32:10;;;;;;;11.20;5.50;;;;;;;10.59;52.07;101366.23;110897;1257;24292;-77
2023/05/03 04:34:51;;;;;;;9.10;6.20;;;;;;;10.66;51.97;101370.63;110852;1259;23047;-77
2023/05/03 04:37:24;;;;;;;7.80;5.90;;;;;;;10.68;51.82;101371.45;110986;1259;23735;-76
2023/05/03 04:40:01;;;;;;;9.60;6.60;;;;;;;10.72;51.59;101370.84;110817;1260;22620;-76
2023/05/03 04:42:38;;;;;;;8.60;5.70;;;;;;;10.75;51.41;101376.86;110877;1259;21958;-77
2023/05/03 04:45:13;;;;;;;11.30;5.70;;;;;;;10.76;51.24;101379.29;110829;1260;21991;-76
2023/05/03 04:47:48;;;;;;;9.50;6.00;;;;;;;10.79;51.21;101380.77;111064;1256;22056;-80
2023/05/03 04:50:28;;;;;;;9.50;6.00;;;;;;;10.87;51.31;101383.58;111123;1256;23041;-79
2023/05/03 04:53:00;;;;;;;13.50;6.60;;;;;;;10.97;51.16;101384.57;111207;1256;22420;-79
2023/05/03 04:55:32;;;;;;;9.40;6.00;;;;;;;11.18;51.38;101386.52;111095;1256;21996;-77
2023/05/03 04:58:04;;;;;;;7.90;5.30;;;;;;;11.46;51.21;101388.98;111090;1256;22070;-77
2023/05/03 05:00:35;;;;;;;6.50;4.30;;;;;;;11.66;50.59;101392.45;111339;1254;21952;-77
2023/05/03 05:03:11;;;;;;;10.00;5.40;;;;;;;11.83;50.11;101395.52;111075;1256;22802;-76
2023/05/03 05:05:51;;;;;;;11.50;5.50;;;;;;;11.97;49.41;101399.71;110940;1257;21969;-76
2023/05/03 05:08:24;;;;;;;8.40;5.10;;;;;;;12.04;48.94;101403.54;111256;1256;22728;-76
2023/05/03 05:11:13;;;;;;;10.70;4.80;;;;;;;12.14;48.80;101409.02;111194;1256;23577;-76
2023/05/03 05:13:50;;;;;;;10.20;4.50;;;;;;;12.31;48.77;101414.15;111048;1254;21972;-76
2023/05/03 05:16:32;;;;;;;7.50;4.70;;;;;;;12.36;47.87;101409.64;110677;1261;22790;-77
2023/05/03 05:19:05;;;;;;;;;;;;;;;12.41;47.45;101416.13;110593;1261;22186;-76
2023/05/03 05:21:47;;;;;;;7.40;4.40;;;;;;;12.38;47.22;101423.37;110772;1261;22004;-77
2023/05/03 05:24:18;;;;;;;9.70;4.50;;;;;;;12.45;47.17;101427.36;110894;1261;21953;-77
2023/05/03 05:26:55;;;;;;;9.00;4.40;;;;;;;12.56;46.94;101428.63;110605;1261;21973;-76
2023/05/03 05:29:31;;;;;;;5.90;3.60;;;;;;;12.71;46.73;101431.85;110590;1261;24335;-77
2023/05/03 05:32:10;;;;;;;6.10;4.10;;;;;;;12.92;46.46;101437.34;110847;1261;22587;-77
2023/05/03 05:34:54;;;;;;;6.20;4.10;;;;;;;13.09;45.67;101437.16;110676;1257;22338;-78
2023/05/03 05:37:32;;;;;;;6.90;4.00;;;;;;;13.18;45.12;101436.71;110791;1256;23605;-77
2023/05/03 05:40:08;;;;;;;4.80;3.10;;;;;;;13.21;44.45;101438.02;110894;1256;22007;-78
2023/05/03 05:42:57;;;;;;;5.00;3.30;;;;;;;13.34;44.35;101441.31;110963;1259;22843;-77
2023/05/03 05:45:33;;;;;;;8.10;3.80;;;;;;;13.58;44.19;101440.71;110527;1265;22015;-77
2023/05/03 05:48:04;;;;;;;4.70;3.50;;;;;;;13.86;43.93;101437.84;110306;1265;21872;-78
2023/05/03 05:50:37;;;;;;;4.90;2.90;;;;;;;14.34;43.74;101442.81;110605;1265;22813;-77
2023/05/03 05:53:11;;;;;;;8.20;3.00;;;;;;;14.76;42.50;101448.48;110405;1265;22746;-78
2023/05/03 05:55:46;;;;;;;6.10;3.00;;;;;;;15.13;41.85;101449.85;110099;1265;24245;-75
2023/05/03 05:58:21;;;;;;;4.10;2.30;;;;;;;15.64;41.34;101453.46;110292;1265;23660;-77
2023/05/03 06:01:04;;;;;;;3.70;2.60;;;;;;;16.22;40.81;101450.99;110087;1265;22238;-75
2023/05/03 06:03:40;;;;;;;5.50;2.20;;;;;;;16.81;39.46;101457.51;110303;1264;23774;-75
2023/05/03 06:06:11;;;;;;;4.70;2.70;;;;;;;17.07;37.63;101456.31;110642;1265;22064;-77
2023/05/03 06:08:50;;;;;;;6.30;2.90;;;;;;;17.21;36.99;101466.88;110205;1265;22741;-77
2023/05/03 06:11:36;;;;;;;4.40;2.60;;;;;;;17.18;35.84;101465.79;110779;1251;21977;-77
2023/05/03 06:14:39;;;;;;;3.50;2.10;;;;;;;16.93;35.31;101464.70;111092;1255;22017;-76
2023/05/03 06:17:26;;;;;;;5.40;2.20;;;;;;;16.91;35.70;101473.75;111268;1248;21953;-75
2023/05/03 06:20:35;;;;;;;5.90;2.40;;;;;;;17.01;35.38;101479.84;111375;1256;21960;-77
2023/05/03 06:23:12;;;;;;;5.70;1.60;;;;;;;16.97;34.83;101483.48;111348;1256;23035;-76
2023/05/03 06:26:10;;;;;;;3.80;1.80;;;;;;;16.83;34.57;101483.94;111042;1244;23823;-78
2023/05/03 06:28:52;;;;;;;3.70;1.90;;;;;;;16.69;34.27;101481.40;111300;1256;21966;-76
2023/05/03 06:31:30;;;;;;;4.40;2.40;;;;;;;16.41;34.06;101483.90;110922;1256;21914;-76
2023/05/03 06:34:09;;;;;;;5.20;1.90;;;;;;;16.26;34.05;101483.16;111246;1256;23609;-76
2023/05/03 06:36:53;;;;;;;2.40;1.50;;;;;;;16.09;34.18;101483.70;111177;1256;22228;-76
2023/05/03 06:39:27;;;;;;;3.20;2.00;;;;;;;15.97;34.20;101484.70;110958;1256;21961;-77
2023/05/03 06:42:10;;;;;;;6.40;2.40;;;;;;;15.90;34.33;101489.95;110789;1260;21979;-78
2023/05/03 06:44:50;;;;;;;4.80;2.30;;;;;;;15.94;34.94;101490.27;110669;1260;24922;-76
2023/05/03 06:47:26;;;;;;;4.70;2.10;;;;;;;16.14;35.13;101487.69;110643;1260;23095;-77
2023/05/03 06:50:12;;;;;;;4.70;2.00;;;;;;;16.47;34.89;101488.38;110490;1260;21980;-78
2023/05/03 06:52:51;;;;;;;4.20;1.90;;;;;;;16.58;33.87;101487.52;110751;1260;21958;-79
2023/05/03 06:55:48;;;;;;;3.50;2.10;;;;;;;16.75;34.33;101493.63;110445;1264;22474;-76
2023/05/03 06:58:18;;;;;;;5.30;1.70;;;;;;;17.28;34.53;101491.70;110242;1266;22067;-76
2023/05/03 07:00:55;;;;;;;4.70;2.30;;;;;;;17.83;33.41;101490.98;110521;1262;21947;-77
2023/05/03 07:03:43;;;;;;;3.90;1.80;;;;;;;18.25;32.56;101493.96;110850;1262;22330;-78
2023/05/03 07:06:23;;;;;;;6.80;2.30;;;;;;;18.63;31.57;101493.17;110712;1262;21929;-77
2023/05/03 07:08:56;;;;;;;6.80;2.20;;;;;;;18.87;31.34;101492.81;110572;1250;21966;-76
2023/05/03 07:11:33;;;;;;;5.10;1.80;;;;;;;19.15;30.80;101493.41;110781;1262;23612;-78
2023/05/03 07:14:06;;;;;;;3.90;1.60;;;;;;;19.28;30.00;101488.78;110690;1262;21976;-78
2023/05/03 07:16:36;;;;;;;3.40;1.60;;;;;;;19.46;28.99;101490.09;110755;1262;22714;-77
2023/05/03 07:19:07;;;;;;;6.50;2.10;;;;;;;19.40;28.07;101488.84;110868;1257;22675;-77
2023/05/03 07:22:02;;;;;;;5.10;2.40;;;;;;;18.94;27.55;101486.08;110702;1262;21976;-79
2023/05/03 07:24:35;;;;;;;4.50;1.80;;;;;;;18.33;28.22;101490.56;111037;1257;22793;-81
2023/05/03 07:27:15;;;;;;;4.10;1.90;;;;;;;18.33;29.83;101487.36;110860;1262;21945;-81
2023/05/03 07:29:51;;;;;;;3.70;1.70;;;;;;;18.64;29.14;101489.27;110540;1262;23055;-81
2023/05/03 07:32:26;;;;;;;4.50;2.10;;;;;;;18.46;28.35;101489.51;110886;1256;21960;-79
2023/05/03 07:35:00;;;;;;;6.00;2.30;;;;;;;18.22;28.52;101486.90;111474;1256;21994;-81
2023/05/03 07:37:46;;;;;;;4.00;2.10;;;;;;;18.32;29.22;101490.27;110832;1261;22034;-80
2023/05/03 07:40:46;;;;;;;3.50;1.30;;;;;;;18.78;29.30;101493.09;111224;1261;21964;-79
2023/05/03 07:43:22;;;;;;;4.00;1.70;;;;;;;19.49;28.69;101493.80;110867;1256;21941;-80
2023/05/03 07:46:24;;;;;;;10.30;7.00;;;;;;;20.24;27.69;101491.55;110845;1261;22350;-80
2023/05/03 07:49:34;;;;;;;4.30;2.00;;;;;;;20.13;25.98;101492.05;110230;1266;22011;-81
2023/05/03 07:53:07;;;;;;;3.60;1.70;;;;;;;19.63;26.25;101501.48;110231;1266;22511;-80
2023/05/03 07:56:22;;;;;;;8.50;7.10;;;;;;;19.37;27.11;101500.49;110673;1262;21968;-80
2023/05/03 07:59:39;;;;;;;8.70;2.40;;;;;;;19.55;27.39;101498.25;110758;1262;21971;-81
2023/05/03 08:02:53;;;;;;;7.40;2.40;;;;;;;19.61;27.08;101497.20;110051;1267;21974;-79
2023/05/03 08:05:29;;;;;;;6.20;2.10;;;;;;;20.07;27.40;101499.63;110069;1268;21939;-80
2023/05/03 08:08:06;;;;;;;8.60;7.70;;;;;;;20.21;25.91;101494.04;110314;1261;22025;-78
2023/05/03 08:10:46;;;;;;;12.40;7.60;;;;;;;19.66;25.91;101493.18;109834;1263;22029;-77
2023/05/03 08:13:25;;;;;;;7.50;3.50;;;;;;;19.14;26.49;101494.86;109469;1272;21982;-76
2023/05/03 08:16:04;;;;;;;8.90;3.40;;;;;;;18.66;27.12;101493.42;108972;1276;21955;-77
2023/05/03 08:18:45;;;;;;;6.80;2.50;;;;;;;18.15;27.57;101496.40;108982;1276;21968;-77
2023/05/03 08:22:01;;;;;;;4.40;2.70;;;;;;;17.79;28.11;101494.54;108727;1281;21993;-77
2023/05/03 08:25:19;;;;;;;4.90;1.80;;;;;;;17.46;28.78;101498.27;108755;1281;21996;-77
2023/05/03 08:27:54;;;;;;;3.50;1.80;;;;;;;17.39;28.84;101501.73;109058;1281;22049;-76
2023/05/03 08:30:29;;;;;;;5.90;2.20;;;;;;;17.33;28.84;101502.40;109261;1278;22083;-78
2023/05/03 08:33:11;;;;;;;4.00;2.00;;;;;;;17.34;29.02;101505.70;109457;1267;22636;-80
2023/05/03 08:35:56;;;;;;;5.00;2.00;;;;;;;17.37;29.27;101507.80;109691;1267;21995;-75
2023/05/03 08:38:47;;;;;;;4.40;2.00;;;;;;;17.47;29.18;101502.05;110116;1262;21976;-77
2023/05/03 08:41:37;;;;;;;7.40;4.60;;;;;;;17.83;29.29;101509.80;109833;1268;22894;-79
2023/05/03 08:44:25;;;;;;;6.10;3.40;;;;;;;18.13;28.51;101510.96;109768;1254;21981;-77
2023/05/03 08:47:18;;;;;;;6.80;2.60;;;;;;;18.15;27.82;101513.52;110445;1262;22588;-79
2023/05/03 08:50:27;;;;;;;7.00;3.20;;;;;;;18.01;27.75;101511.40;110416;1262;24284;-77
2023/05/03 08:53:08;;;;;;;4.00;2.10;;;;;;;17.98;27.94;101518.08;110036;1261;22729;-80
2023/05/03 08:55:59;;;;;;;;;;;;;;;17.94;27.91;101519.85;110696;1262;21947;-78
2023/05/03 08:59:03;;;;;;;4.70;2.20;;;;;;;17.60;27.96;101524.48;111102;1262;21995;-78
2023/05/03 09:03:13;;;;;;;;;;;;;;;;;;;;;
2023/05/03 09:05:54;;;;;;;17.40;14.70;;;;;;;17.17;29.28;101527.57;109378;1276;23038;-77
2023/05/03 09:08:51;;;;;;;6.70;5.00;;;;;;;17.29;29.62;101528.43;108361;1286;544032;-78
2023/05/03 09:11:29;;;;;;;8.40;2.80;;;;;;;17.10;29.91;101528.58;110153;1264;21968;-76
2023/05/03 09:14:20;;;;;;;33.40;30.20;;;;;;;17.03;30.21;101525.92;111030;1256;24294;-78
2023/05/03 09:16:52;;;;;;;6.60;3.60;;;;;;;17.09;30.23;101529.52;111413;1255;24345;-78
2023/05/03 09:19:27;;;;;;;6.70;2.30;;;;;;;17.01;29.84;101528.53;111142;1251;21965;-78
2023/05/03 09:22:07;;;;;;;6.40;2.50;;;;;;;16.91;29.97;101523.70;111148;1252;283712;-78
2023/05/03 09:24:50;;;;;;;3.20;1.80;;;;;;;16.86;30.06;101523.20;111441;1253;21956;-77
2023/05/03 09:27:34;;;;;;;5.20;2.40;;;;;;;16.85;30.14;101521.15;111452;1254;21970;-78
2023/05/03 09:30:20;;;;;;;6.30;2.90;;;;;;;16.87;30.21;101526.32;111036;1250;21966;-79
2023/05/03 09:33:03;;;;;;;4.30;1.90;;;;;;;16.95;30.31;101525.09;111316;1253;22060;-80
2023/05/03 09:35:35;;;;;;;4.80;2.00;;;;;;;17.01;29.85;101526.39;111438;1252;22451;-79
2023/05/03 09:38:29;;;;;;;10.20;2.80;;;;;;;16.94;29.80;101527.59;111045;1246;23017;-77
2023/05/03 09:41:12;;;;;;;9.60;2.50;;;;;;;16.97;30.13;101527.27;110886;1259;22714;-78
2023/05/03 09:43:54;;;;;;;16.30;12.30;;;;;;;17.23;30.55;101526.09;111057;1259;22721;-79
2023/05/03 09:46:31;;;;;;;7.90;6.10;;;;;;;18.15;31.27;101520.70;111018;1256;23854;-80
2023/05/03 09:49:03;;;;;;;;;;;;;;;19.29;30.13;101518.35;111164;1259;21958;-78
2023/05/03 09:51:40;;;;;;;4.90;3.00;;;;;;;20.00;28.56;101516.62;110236;1263;22985;-77
2023/05/03 09:54:17;;;;;;;5.20;2.30;;;;;;;20.57;27.42;101513.98;110511;1263;24395;-78
2023/05/03 09:57:04;;;;;;;5.30;2.60;;;;;;;20.68;25.95;101512.80;110238;1259;22750;-77
2023/05/03 09:59:49;;;;;;;4.60;2.00;;;;;;;20.31;25.82;101512.88;110800;1259;22017;-77
2023/05/03 10:02:23;;;;;;;9.20;2.80;;;;;;;19.70;25.83;101509.92;110106;1266;21985;-79
2023/05/03 10:05:06;;;;;;;4.80;3.10;;;;;;;19.11;26.43;101508.65;110288;1265;21942;-79
2023/05/03 10:07:50;;;;;;;7.50;2.20;;;;;;;18.78;26.86;101505.84;110236;1265;21961;-78
2023/05/03 10:10:23;;;;;;;6.50;2.20;;;;;;;18.45;27.13;101507.75;110223;1265;21964;-78
2023/05/03 10:13:02;;;;;;;6.40;2.50;;;;;;;18.35;27.76;101502.27;110471;1260;23037;-78
2023/05/03 10:15:45;;;;;;;5.20;2.00;;;;;;;18.63;28.26;101497.08;110503;1264;24306;-79
2023/05/03 10:18:24;;;;;;;6.80;2.60;;;;;;;19.71;28.25;101500.48;110563;1265;23580;-79
2023/05/03 10:21:18;;;;;;;5.50;2.20;;;;;;;20.76;26.46;101500.75;110404;1260;23719;-78
2023/05/03 10:24:14;;;;;;;3.90;2.10;;;;;;;20.76;24.98;101496.71;110748;1261;22026;-77
2023/05/03 10:26:56;;;;;;;5.30;2.50;;;;;;;20.34;25.06;101493.78;111066;1261;22431;-78
2023/05/03 10:29:33;;;;;;;7.70;2.30;;;;;;;19.99;25.69;101503.81;110882;1261;21976;-81
2023/05/03 10:32:25;;;;;;;6.10;2.20;;;;;;;19.57;25.74;101505.39;111185;1261;23709;-78
2023/05/03 10:35:16;;;;;;;7.50;2.70;;;;;;;19.11;26.21;101507.77;110621;1260;23730;-79
2023/05/03 10:38:16;;;;;;;6.30;3.70;;;;;;;18.81;26.88;101498.61;110674;1260;22746;-78
2023/05/03 10:41:02;;;;;;;19.90;15.70;;;;;;;18.74;27.44;101499.88;110213;1265;23679;-78
2023/05/03 10:43:38;;;;;;;6.30;5.30;;;;;;;18.72;27.62;101496.44;110439;1265;21976;-77
2023/05/03 10:46:33;;;;;;;4.80;2.40;;;;;;;18.71;27.20;101498.45;110884;1264;22011;-77
2023/05/03 10:49:22;;;;;;;7.20;3.30;;;;;;;18.45;27.19;101500.00;110103;1265;21975;-80
2023/05/03 10:51:56;;;;;;;5.20;2.90;;;;;;;18.32;27.62;101505.41;110299;1264;22352;-78
2023/05/03 10:54:28;;;;;;;4.90;1.90;;;;;;;18.35;27.88;101500.83;110644;1260;21974;-78
2023/05/03 10:57:02;;;;;;;4.20;2.30;;;;;;;18.51;27.97;101507.04;110268;1263;21994;-77
2023/05/03 10:59:53;;;;;;;6.30;2.50;;;;;;;18.54;27.52;101506.01;110313;1264;23589;-80
2023/05/03 11:03:22;;;;;;;7.50;2.90;;;;;;;18.37;27.19;101502.69;109718;1270;23061;-78
2023/05/03 11:05:52;;;;;;;4.00;2.30;;;;;;;18.09;27.25;101503.59;110338;1266;23702;-79
2023/05/03 11:08:29;;;;;;;4.70;2.40;;;;;;;17.91;27.64;101506.83;110024;1267;23808;-80
2023/05/03 11:11:06;;;;;;;6.60;2.50;;;;;;;17.74;28.25;101510.25;110031;1266;22324;-78
2023/05/03 11:13:37;;;;;;;5.20;2.20;;;;;;;17.54;28.18;101507.16;109632;1271;21963;-79
2023/05/03 11:16:14;;;;;;;5.40;2.40;;;;;;;17.34;28.46;101515.34;109190;1276;22057;-79
2023/05/03 11:19:01;;;;;;;5.90;2.20;;;;;;;17.23;28.70;101514.30;109194;1276;22783;-79
2023/05/03 11:21:41;;;;;;;8.90;3.40;;;;;;;17.03;28.70;101518.23;108993;1276;22270;-78
2023/05/03 11:24:18;;;;;;;4.50;2.40;;;;;;;16.82;28.94;101514.77;109131;1276;21992;-78
2023/05/03 11:26:57;;;;;;;8.10;2.20;;;;;;;16.73;29.34;101510.05;109031;1276;23052;-80
2023/05/03 11:29:31;;;;;;;5.50;3.30;;;;;;;16.71;29.52;101511.36;109288;1276;21988;-79
2023/05/03 11:32:01;;;;;;;9.70;2.50;;;;;;;16.79;29.74;101509.79;109075;1276;23879;-79
2023/05/03 11:34:32;;;;;;;6.90;3.50;;;;;;;16.91;30.17;101505.38;109352;1258;22080;-78
2023/05/03 11:37:07;;;;;;;4.90;2.30;;;;;;;17.08;30.00;101506.39;109595;1270;21972;-80
2023/05/03 11:39:40;;;;;;;7.30;2.30;;;;;;;17.05;29.69;101506.16;109829;1260;21963;-79
2023/05/03 11:42:12;;;;;;;6.80;3.20;;;;;;;16.84;29.65;101507.98;110632;1260;21967;-78
2023/05/03 11:44:45;;;;;;;5.80;2.70;;;;;;;16.68;30.12;101507.27;110562;1260;21972;-82
2023/05/03 11:47:15;;;;;;;10.10;3.50;;;;;;;16.67;30.67;101501.52;109655;1266;22989;-80
2023/05/03 11:49:59;;;;;;;6.50;2.60;;;;;;;16.79;30.34;101504.16;110264;1266;21981;-80
2023/05/03 11:52:36;;;;;;;6.90;2.90;;;;;;;16.87;30.04;101505.75;109653;1268;21976;-78
2023/05/03 11:55:11;;;;;;;4.90;2.70;;;;;;;16.90;30.23;101507.58;109392;1274;21999;-79
2023/05/03 11:57:44;;;;;;;5.80;2.20;;;;;;;16.82;30.20;101504.02;109545;1269;24312;-79
2023/05/03 12:00:21;;;;;;;4.30;2.70;;;;;;;16.74;30.14;101503.48;109588;1270;22036;-78
2023/05/03 12:02:51;;;;;;;7.10;2.50;;;;;;;16.66;30.24;101496.66;109990;1270;22403;-79
2023/05/03 12:05:23;;;;;;;9.80;3.50;;;;;;;16.69;30.53;101498.27;109823;1264;22315;-74
2023/05/03 12:07:57;;;;;;;6.00;2.40;;;;;;;16.77;30.55;101497.92;109471;1270;22413;-73
2023/05/03 12:10:33;;;;;;;4.20;2.10;;;;;;;16.70;30.31;101497.38;109541;1267;21945;-75
2023/05/03 12:13:11;;;;;;;5.90;2.60;;;;;;;16.61;30.50;101496.52;109801;1267;21966;-74
2023/05/03 12:15:55;;;;;;;5.00;3.00;;;;;;;16.54;30.48;101497.36;110203;1254;21977;-73
2023/05/03 12:18:48;;;;;;;4.60;2.50;;;;;;;16.42;30.62;101496.67;110213;1266;23136;-73